North Point, Canada
Current Conditions -  °F | °C
As of 11:00 PM on Tuesday 25 Nov 2014 (Local Time) from CYYG Reporting Station
Broken Clouds Broken Clouds  
Wind Chill: 45°   Ceiling: 4200
Heat Index: 48°   Visibility: 15mi
Dew Point: 36°   Wind: 7mph
Humidity: 62%   Direction: 260°W
Pressure: 29.87"   Gusts: NA
Location:  46.39°N, 62.11°W
Report Text: CYYG 260300Z 26006KT 15SM BKN042 BKN250 09/02 A2987 RMK SC5CI1 SLP114
Loading
Personal Weather Stations






























Interactive Weather Map New forecast layout! Learn more

10-Day Weather Forecast

Advertisements
Track Severe Weather on mobile